createdAt,value
2022-08-30T00:01:03.420Z,20.72
2022-08-30T00:03:37.007Z,20.67
2022-08-30T00:06:06.753Z,20.65
2022-08-30T00:08:34.811Z,20.64
2022-08-30T00:11:02.448Z,20.61
2022-08-30T00:13:30.003Z,20.59
2022-08-30T00:15:57.485Z,20.50
2022-08-30T00:18:25.799Z,20.47
2022-08-30T00:20:53.088Z,20.46
2022-08-30T00:23:20.151Z,20.48
2022-08-30T00:25:47.188Z,20.46
2022-08-30T00:28:15.019Z,20.44
2022-08-30T00:30:42.206Z,20.37
2022-08-30T00:33:09.307Z,20.40
2022-08-30T00:35:36.479Z,20.24
2022-08-30T00:38:03.587Z,20.30
2022-08-30T00:40:30.886Z,20.33
2022-08-30T00:42:59.220Z,20.31
2022-08-30T00:45:32.048Z,20.26
2022-08-30T00:47:59.439Z,20.26
2022-08-30T00:50:32.987Z,20.25
2022-08-30T00:53:01.286Z,20.17
2022-08-30T00:55:28.319Z,20.14
2022-08-30T00:57:58.529Z,20.17
2022-08-30T01:00:25.617Z,20.07
2022-08-30T01:02:53.646Z,20.13
2022-08-30T01:05:20.825Z,20.09
2022-08-30T01:07:47.854Z,20.02
2022-08-30T01:10:15.082Z,20.05
2022-08-30T01:12:42.190Z,20.00
2022-08-30T01:15:09.710Z,19.95
2022-08-30T01:17:36.650Z,19.94
2022-08-30T01:20:07.028Z,19.96
2022-08-30T01:22:40.239Z,19.95
2022-08-30T01:25:09.153Z,19.91
2022-08-30T01:27:38.588Z,19.90
2022-08-30T01:30:06.779Z,19.87
2022-08-30T01:32:34.592Z,19.85
2022-08-30T01:35:01.656Z,19.82
2022-08-30T01:37:31.749Z,19.81
2022-08-30T01:40:00.293Z,19.75
2022-08-30T01:42:28.607Z,19.75
2022-08-30T01:44:55.788Z,19.69
2022-08-30T01:47:23.136Z,19.70
2022-08-30T01:49:50.222Z,19.69
2022-08-30T01:52:20.530Z,19.68
2022-08-30T01:54:48.676Z,19.65
2022-08-30T01:57:17.951Z,19.63
2022-08-30T01:59:49.938Z,19.57
2022-08-30T02:02:21.533Z,19.60
2022-08-30T02:04:49.126Z,19.50
2022-08-30T02:07:17.065Z,19.54
2022-08-30T02:09:44.416Z,19.51
2022-08-30T02:12:13.756Z,19.49
2022-08-30T02:14:41.926Z,19.43
2022-08-30T02:17:15.477Z,19.46
2022-08-30T02:19:43.833Z,19.43
2022-08-30T02:22:11.044Z,19.39
2022-08-30T02:24:38.295Z,19.35
2022-08-30T02:27:14.640Z,19.37
2022-08-30T02:29:41.756Z,19.34
2022-08-30T02:32:08.771Z,19.33
2022-08-30T02:34:35.936Z,19.31
2022-08-30T02:37:02.903Z,19.23
2022-08-30T02:39:31.062Z,19.26
2022-08-30T02:41:58.137Z,19.20
2022-08-30T02:44:28.385Z,19.23
2022-08-30T02:46:55.371Z,19.14
2022-08-30T02:49:37.743Z,19.09
2022-08-30T02:52:07.846Z,19.14
2022-08-30T02:54:35.645Z,19.11
2022-08-30T02:57:06.853Z,19.07
2022-08-30T02:59:34.148Z,19.09
2022-08-30T03:02:02.165Z,19.06
2022-08-30T03:04:29.586Z,19.04
2022-08-30T03:06:56.840Z,19.04
2022-08-30T03:09:25.066Z,18.98
2022-08-30T03:11:53.306Z,18.98
2022-08-30T03:14:20.321Z,18.98
2022-08-30T03:16:47.456Z,18.92
2022-08-30T03:19:14.627Z,18.89
2022-08-30T03:21:43.303Z,18.92
2022-08-30T03:24:10.606Z,18.88
2022-08-30T03:26:37.608Z,18.84
2022-08-30T03:29:08.298Z,18.87
2022-08-30T03:31:43.005Z,18.77
2022-08-30T03:34:22.028Z,18.74
2022-08-30T03:36:49.739Z,18.79
2022-08-30T03:39:16.783Z,18.76
2022-08-30T03:41:44.255Z,18.77
2022-08-30T03:44:11.230Z,18.75
2022-08-30T03:46:39.556Z,18.73
2022-08-30T03:49:06.760Z,18.64
2022-08-30T03:51:34.215Z,18.70
2022-08-30T03:54:03.025Z,18.65
2022-08-30T03:56:33.400Z,18.65
2022-08-30T03:59:01.660Z,18.65
2022-08-30T04:01:28.675Z,18.55
2022-08-30T04:03:56.826Z,18.57
2022-08-30T04:06:24.342Z,18.57
2022-08-30T04:08:51.637Z,18.52
2022-08-30T04:11:18.882Z,18.50
2022-08-30T04:13:47.108Z,18.54
2022-08-30T04:16:16.254Z,18.51
2022-08-30T04:18:43.214Z,18.47
2022-08-30T04:21:13.991Z,18.49
2022-08-30T04:23:41.697Z,18.47
2022-08-30T04:26:08.737Z,18.42
2022-08-30T04:28:38.347Z,18.44
2022-08-30T04:31:12.023Z,18.43
2022-08-30T04:33:39.646Z,18.38
2022-08-30T04:36:07.129Z,18.40
2022-08-30T04:38:34.229Z,18.40
2022-08-30T04:41:08.625Z,18.31
2022-08-30T04:43:35.661Z,18.36
2022-08-30T04:46:05.984Z,18.36
2022-08-30T04:48:33.200Z,18.36
2022-08-30T04:51:00.175Z,18.36
2022-08-30T04:53:27.136Z,18.36
2022-08-30T04:55:54.452Z,18.32
2022-08-30T04:58:21.769Z,18.34
2022-08-30T05:00:48.798Z,18.35
2022-08-30T05:03:17.979Z,18.31
2022-08-30T05:05:51.064Z,18.38
2022-08-30T05:08:24.490Z,18.36
2022-08-30T05:10:52.148Z,18.31
2022-08-30T05:13:19.706Z,18.40
2022-08-30T05:15:47.151Z,18.41
2022-08-30T05:18:16.024Z,18.42
2022-08-30T05:20:45.430Z,18.44
2022-08-30T05:23:14.020Z,18.46
2022-08-30T05:25:41.817Z,18.47
2022-08-30T05:28:09.194Z,18.50
2022-08-30T05:30:38.424Z,18.53
2022-08-30T05:33:05.346Z,18.55
2022-08-30T05:35:33.033Z,18.52
2022-08-30T05:38:00.067Z,18.57
2022-08-30T05:40:29.178Z,18.63
2022-08-30T05:42:56.727Z,18.64
2022-08-30T05:45:24.433Z,18.57
2022-08-30T05:47:51.390Z,18.67
2022-08-30T05:50:18.988Z,18.69
2022-08-30T05:52:46.094Z,18.76
2022-08-30T05:55:13.189Z,18.80
2022-08-30T05:57:41.057Z,18.77
2022-08-30T06:00:13.986Z,18.78
2022-08-30T06:02:41.793Z,18.89
2022-08-30T06:05:09.344Z,18.87
2022-08-30T06:07:36.481Z,18.91
2022-08-30T06:10:04.501Z,19.02
2022-08-30T06:12:31.451Z,18.95
2022-08-30T06:14:58.576Z,19.08
2022-08-30T06:17:25.683Z,19.11
2022-08-30T06:19:52.866Z,19.18
2022-08-30T06:22:19.967Z,19.24
2022-08-30T06:24:57.252Z,19.29
2022-08-30T06:27:25.085Z,19.30
2022-08-30T06:29:52.729Z,19.33
2022-08-30T06:32:19.857Z,19.32
2022-08-30T06:34:47.056Z,19.45
2022-08-30T06:37:21.949Z,19.53
2022-08-30T06:39:57.979Z,19.60
2022-08-30T06:42:30.772Z,19.64
2022-08-30T06:45:01.438Z,19.70
2022-08-30T06:47:31.440Z,19.80
2022-08-30T06:49:58.883Z,19.81
2022-08-30T06:52:25.924Z,19.93
2022-08-30T06:54:54.614Z,20.00
2022-08-30T06:57:21.600Z,20.09
2022-08-30T06:59:57.369Z,20.05
2022-08-30T07:02:24.908Z,20.20
2022-08-30T07:04:51.938Z,20.25
2022-08-30T07:07:20.242Z,20.31
2022-08-30T07:09:47.385Z,20.34
2022-08-30T07:12:15.946Z,20.42
2022-08-30T07:14:43.874Z,20.54
2022-08-30T07:17:33.986Z,20.56
2022-08-30T07:20:07.187Z,20.58
2022-08-30T07:22:34.251Z,20.75
2022-08-30T07:25:01.551Z,20.74
2022-08-30T07:27:28.966Z,20.90
2022-08-30T07:30:02.441Z,20.97
2022-08-30T07:32:40.793Z,21.04
2022-08-30T07:35:08.694Z,21.10
2022-08-30T07:37:35.839Z,21.13
2022-08-30T07:40:05.193Z,21.15
2022-08-30T07:42:34.511Z,21.32
2022-08-30T07:45:03.717Z,21.37
2022-08-30T07:47:38.269Z,21.36
2022-08-30T07:50:07.732Z,21.51
2022-08-30T07:52:48.779Z,21.43
2022-08-30T08:04:16.623Z,21.81
2022-08-30T08:06:52.825Z,21.87
2022-08-30T08:09:30.158Z,22.06
2022-08-30T08:11:58.457Z,22.11
2022-08-30T08:14:28.937Z,22.17
2022-08-30T08:17:07.896Z,22.29
2022-08-30T08:19:41.548Z,22.32
2022-08-30T08:22:20.491Z,22.41
2022-08-30T08:24:51.087Z,22.36
2022-08-30T08:27:18.545Z,22.44
2022-08-30T08:29:45.713Z,22.55
2022-08-30T08:32:13.033Z,22.66
2022-08-30T08:34:41.664Z,22.73
2022-08-30T08:37:08.804Z,22.84
2022-08-30T08:39:37.698Z,22.95
2022-08-30T08:42:04.886Z,23.03
2022-08-30T08:44:57.336Z,23.12
2022-08-30T08:47:52.471Z,23.22
2022-08-30T08:50:20.178Z,23.31
2022-08-30T08:53:10.780Z,23.43
2022-08-30T08:55:52.703Z,23.50
2022-08-30T08:58:31.297Z,23.56
2022-08-30T09:00:59.383Z,23.72
2022-08-30T09:03:29.128Z,23.90
2022-08-30T09:05:59.472Z,24.01
2022-08-30T09:08:27.807Z,24.09
2022-08-30T09:11:06.938Z,24.14
2022-08-30T09:13:36.451Z,24.18
2022-08-30T09:16:09.000Z,24.34
2022-08-30T09:18:45.484Z,24.46
2022-08-30T09:21:13.836Z,24.51
2022-08-30T09:23:55.006Z,24.59
2022-08-30T09:26:36.700Z,24.71
2022-08-30T09:29:05.768Z,24.84
2022-08-30T09:32:22.481Z,25.06
2022-08-30T09:34:50.217Z,25.14
2022-08-30T09:37:30.771Z,25.27
2022-08-30T09:39:57.965Z,25.40
2022-08-30T09:42:27.296Z,25.52
2022-08-30T09:45:10.641Z,25.63
2022-08-30T10:22:54.049Z,27.43
2022-08-30T10:25:39.977Z,27.44
2022-08-30T12:23:49.871Z,29.27
2022-08-30T12:26:35.245Z,29.48
2022-08-30T12:29:16.308Z,29.41
2022-08-30T12:31:50.032Z,29.36
2022-08-30T12:34:30.819Z,29.40
2022-08-30T12:37:24.451Z,29.38
2022-08-30T12:40:15.619Z,29.42
2022-08-30T12:42:50.523Z,29.52
2022-08-30T12:45:21.155Z,29.48
2022-08-30T12:48:08.944Z,29.56
2022-08-30T12:50:43.705Z,29.51
2022-08-30T12:53:14.130Z,29.49
2022-08-30T12:55:55.519Z,29.55
2022-08-30T12:58:43.599Z,29.50
2022-08-30T13:01:32.556Z,29.40
2022-08-30T13:04:13.873Z,29.45
2022-08-30T13:06:45.483Z,29.43
2022-08-30T13:09:41.498Z,29.37
2022-08-30T13:12:26.702Z,29.36
2022-08-30T13:14:54.224Z,29.20
2022-08-30T13:17:24.634Z,29.37
2022-08-30T13:20:02.488Z,29.36
2022-08-30T13:22:34.080Z,29.20
2022-08-30T13:25:08.527Z,29.35
2022-08-30T13:27:55.944Z,29.19
2022-08-30T13:30:23.211Z,29.29
2022-08-30T13:32:50.791Z,29.19
2022-08-30T13:35:17.781Z,29.14
2022-08-30T13:37:49.787Z,29.19
2022-08-30T13:40:18.734Z,29.10
2022-08-30T13:42:45.851Z,29.19
2022-08-30T13:48:02.933Z,29.13
2022-08-30T13:50:36.503Z,29.10
2022-08-30T14:21:31.170Z,28.38
2022-08-30T14:23:59.690Z,28.34
2022-08-30T14:26:32.808Z,28.45
2022-08-30T14:29:02.360Z,28.40
2022-08-30T14:31:32.414Z,28.33
2022-08-30T14:34:00.866Z,28.27
2022-08-30T14:36:28.086Z,28.30
2022-08-30T14:38:55.361Z,28.26
2022-08-30T14:41:22.453Z,28.18
2022-08-30T14:43:52.466Z,28.16
2022-08-30T14:46:31.425Z,28.09
2022-08-30T14:49:00.639Z,28.20
2022-08-30T15:13:19.642Z,27.71
2022-08-30T15:15:48.142Z,27.79
2022-08-30T15:42:19.003Z,27.33
2022-08-30T15:44:50.635Z,27.24
2022-08-30T15:47:20.846Z,27.21
2022-08-30T15:50:02.212Z,27.29
2022-08-30T15:52:30.361Z,27.16
2022-08-30T15:54:57.603Z,27.16
2022-08-30T15:57:30.747Z,27.17
2022-08-30T15:59:58.531Z,27.08
2022-08-30T16:02:27.668Z,27.15
2022-08-30T16:04:55.382Z,26.99
2022-08-30T16:07:24.871Z,26.99
2022-08-30T16:09:53.792Z,27.00
2022-08-30T16:12:23.627Z,27.00
2022-08-30T16:14:51.681Z,26.85
2022-08-30T16:17:19.188Z,26.82
2022-08-30T16:19:46.390Z,26.77
2022-08-30T16:22:15.811Z,26.81
2022-08-30T16:24:52.290Z,26.79
2022-08-30T16:27:21.232Z,26.63
2022-08-30T16:29:50.046Z,26.64
2022-08-30T16:32:17.955Z,26.58
2022-08-30T16:34:45.833Z,26.52
2022-08-30T16:37:14.485Z,26.52
2022-08-30T16:39:46.677Z,26.39
2022-08-30T16:42:21.369Z,26.39
2022-08-30T16:44:49.753Z,26.47
2022-08-30T16:47:17.245Z,26.43
2022-08-30T16:49:49.082Z,26.39
2022-08-30T16:52:20.166Z,26.26
2022-08-30T16:54:52.269Z,26.30
2022-08-30T16:57:19.573Z,26.22
2022-08-30T16:59:47.454Z,26.16
2022-08-30T17:02:18.413Z,26.06
2022-08-30T17:04:52.936Z,26.01
2022-08-30T17:07:21.555Z,26.02
2022-08-30T17:09:53.515Z,25.87
2022-08-30T17:12:21.178Z,25.84
2022-08-30T17:14:48.248Z,25.78
2022-08-30T17:17:22.166Z,25.82
2022-08-30T17:20:01.186Z,25.74
2022-08-30T17:26:22.345Z,25.58
2022-08-30T17:28:50.907Z,25.55
2022-08-30T17:31:17.999Z,25.53
2022-08-30T17:34:04.391Z,25.46
2022-08-30T17:41:27.215Z,25.15
2022-08-30T17:44:02.381Z,25.25
2022-08-30T17:46:32.862Z,25.21
2022-08-30T17:49:29.379Z,25.04
2022-08-30T17:52:23.178Z,24.96
2022-08-30T17:54:54.207Z,24.88
2022-08-30T18:01:12.197Z,24.88
2022-08-30T18:03:39.720Z,24.87
2022-08-30T18:06:11.646Z,24.67
2022-08-30T18:08:38.687Z,24.80
2022-08-30T18:11:06.015Z,24.76
2022-08-30T18:13:33.333Z,24.70
2022-08-30T18:16:04.971Z,24.68
2022-08-30T18:18:32.676Z,24.62
2022-08-30T18:20:59.929Z,24.58
2022-08-30T18:23:27.333Z,24.54
2022-08-30T18:26:01.211Z,24.51
2022-08-30T18:28:29.223Z,24.39
2022-08-30T18:30:57.129Z,24.39
2022-08-30T18:33:25.122Z,24.35
2022-08-30T18:35:52.702Z,24.31
2022-08-30T18:38:23.800Z,24.26
2022-08-30T18:40:52.210Z,24.22
2022-08-30T18:43:24.678Z,24.19
2022-08-30T18:45:58.432Z,24.09
2022-08-30T18:48:49.071Z,24.03
2022-08-30T18:51:25.610Z,23.90
2022-08-30T18:53:56.702Z,23.95
2022-08-30T18:56:23.915Z,23.83
2022-08-30T18:58:56.260Z,23.71
